KGSH/GSH METAR and TAF weather

Enter ICAO airport designator
Station Type Date Time Source
KGSH METAR 2019/04/23 03:53 UTC NOAA

KGSH 230353Z AUTO 18007KT 10SM SCT100 BKN120 18/09 A2995 RMK AO2 SLP138 T01780089


Station Type Date Time Source
KGSH Decoded METAR 2019/04/23 03:53 UTC NOAA

GOSHEN MUNICIPAL AIRPORT, IN, United States (KGSH) 41-32N 85-47W 252M
Apr 22, 2019 - 11:53 PM EDT / 2019.04.23 0353 UTC
Wind: from the S (180 degrees) at 8 MPH (7 KT):0
Visibility: 10 mile(s):0
Sky conditions: mostly cloudy
Temperature: 64.0 F (17.8 C)
Dew Point: 48.0 F (8.9 C)
Relative Humidity: 55%
Pressure (altimeter): 29.95 in. Hg (1014 hPa)
ob: KGSH 230353Z AUTO 18007KT 10SM SCT100 BKN120 18/09 A2995 RMK AO2 SLP138 T01780089
cycle: 4

Station Type Date Time Source
KGSH TAF UTC NOAA

Error!

Example: see airport list